Time;durP1;ratioP1;P1;durP2;ratioP2;P2;SDS_P1;SDS_P2;PMS_P1;PMS_P2;Temp;Humidity;BMP_temperature;BMP_pressure;BME280_temperature;BME280_humidity;BME280_pressure;Samples;Min_cycle;Max_cycle;Signal;HPM_P1;HPM_P2
2022/05/07 00:00:28;;;;;;;7.45;4.97;;;15.70;67.40;;;;;;5092712;28;20086;-47
2022/05/07 00:02:55;;;;;;;6.28;5.20;;;15.70;67.40;;;;;;5092663;28;20032;-47
2022/05/07 00:05:20;;;;;;;7.47;5.00;;;15.80;67.60;;;;;;5091299;28;20047;-47
2022/05/07 00:07:47;;;;;;;8.48;5.35;;;15.80;67.60;;;;;;5092097;28;20029;-46
2022/05/07 00:10:13;;;;;;;7.32;5.55;;;15.80;67.60;;;;;;5092739;28;20028;-46
2022/05/07 00:12:38;;;;;;;6.93;5.10;;;15.70;67.60;;;;;;5092566;28;20046;-46
2022/05/07 00:15:05;;;;;;;6.72;4.97;;;15.70;67.70;;;;;;5091244;28;20020;-47
2022/05/07 00:20:14;;;;;;;7.82;5.18;;;15.70;67.80;;;;;;5092826;28;20572;-46
2022/05/07 00:22:40;;;;;;;6.30;4.68;;;15.70;67.80;;;;;;5092774;28;20071;-46
2022/05/07 00:25:05;;;;;;;5.65;5.05;;;15.70;67.90;;;;;;5092679;28;20419;-46
2022/05/07 00:27:31;;;;;;;6.07;5.43;;;15.70;67.90;;;;;;5092496;28;20036;-47
2022/05/07 00:29:57;;;;;;;7.13;5.43;;;15.70;67.90;;;;;;5092504;28;20035;-46
2022/05/07 00:32:22;;;;;;;7.47;5.10;;;15.70;68.00;;;;;;5091161;28;20028;-46
2022/05/07 00:34:48;;;;;;;5.75;4.88;;;15.80;68.00;;;;;;5091255;28;20032;-46
2022/05/07 00:37:13;;;;;;;6.53;5.13;;;15.70;68.00;;;;;;5092727;28;20510;-46
2022/05/07 00:39:39;;;;;;;6.00;5.38;;;15.70;68.10;;;;;;5092846;28;20106;-46
2022/05/07 00:42:06;;;;;;;8.38;5.03;;;15.70;68.20;;;;;;5092505;28;20085;-46
2022/05/07 00:44:33;;;;;;;8.23;5.40;;;15.60;68.30;;;;;;5092707;28;20336;-46
2022/05/07 00:47:13;;;;;;;7.55;5.50;;;15.60;68.40;;;;;;5092330;28;20039;-46
2022/05/07 00:49:43;;;;;;;6.38;5.18;;;15.60;68.60;;;;;;5092384;28;20498;-46
2022/05/07 00:52:09;;;;;;;6.22;5.25;;;15.60;68.50;;;;;;5092089;28;20031;-46
2022/05/07 00:54:35;;;;;;;7.13;5.65;;;15.60;68.50;;;;;;5090835;28;20024;-46
2022/05/07 00:57:02;;;;;;;7.55;5.65;;;15.60;68.60;;;;;;5092110;28;20403;-47
2022/05/07 00:59:27;;;;;;;7.18;5.38;;;15.60;68.70;;;;;;5092166;28;20024;-46
2022/05/07 01:01:53;;;;;;;6.85;5.28;;;15.60;68.70;;;;;;5092123;28;20035;-46
2022/05/07 01:04:19;;;;;;;5.90;5.00;;;15.60;68.70;;;;;;5092230;28;20340;-46
2022/05/07 01:06:45;;;;;;;6.68;5.35;;;15.60;68.80;;;;;;5092117;28;20069;-46
2022/05/07 01:09:11;;;;;;;7.07;5.50;;;15.50;68.80;;;;;;5091937;28;20027;-46
2022/05/07 01:11:38;;;;;;;7.28;4.80;;;15.60;68.90;;;;;;5091855;28;20165;-46
2022/05/07 01:14:04;;;;;;;8.15;5.50;;;15.60;69.10;;;;;;5091878;28;20055;-46
2022/05/07 01:16:29;;;;;;;5.97;5.38;;;15.50;69.10;;;;;;5092126;28;20447;-46
2022/05/07 01:18:55;;;;;;;8.27;5.80;;;15.50;69.20;;;;;;5092367;28;20028;-46
2022/05/07 01:21:21;;;;;;;7.93;5.60;;;15.50;69.30;;;;;;5095711;28;20073;-46
2022/05/07 01:23:49;;;;;;;7.15;6.10;;;15.50;69.40;;;;;;5095731;28;20035;-46
2022/05/07 01:26:20;;;;;;;7.05;5.75;;;15.50;69.40;;;;;;5095543;28;20036;-47
2022/05/07 01:28:46;;;;;;;9.82;6.15;;;15.50;69.40;;;;;;5095796;28;20024;-46
2022/05/07 01:31:11;;;;;;;7.47;6.22;;;15.50;69.50;;;;;;5095374;28;20077;-46
2022/05/07 01:33:38;;;;;;;8.60;6.53;;;15.50;69.50;;;;;;5095478;28;20020;-46
2022/05/07 01:36:11;;;;;;;7.30;6.15;;;15.40;69.50;;;;;;5093748;28;20013;-46
2022/05/07 01:38:37;;;;;;;9.20;6.40;;;15.50;69.70;;;;;;5095397;28;20468;-46
2022/05/07 01:41:03;;;;;;;7.13;6.32;;;15.40;69.60;;;;;;5095094;28;20722;-46
2022/05/07 01:43:32;;;;;;;6.90;6.20;;;15.40;69.70;;;;;;5095006;28;20421;-46
2022/05/07 01:45:59;;;;;;;8.02;6.22;;;15.40;69.70;;;;;;5095155;28;20031;-46
2022/05/07 01:48:24;;;;;;;8.35;6.82;;;15.40;69.70;;;;;;5094834;28;20020;-46
2022/05/07 01:50:50;;;;;;;7.93;6.95;;;15.40;69.70;;;;;;5095040;28;20028;-46
2022/05/07 01:53:16;;;;;;;7.68;6.85;;;15.40;69.70;;;;;;5095201;28;20499;-50
2022/05/07 01:55:43;;;;;;;8.60;7.30;;;15.40;69.90;;;;;;5094679;28;20024;-46
2022/05/07 01:58:11;;;;;;;9.27;7.45;;;15.40;70.00;;;;;;5094598;28;20052;-46
2022/05/07 02:00:37;;;;;;;9.02;8.13;;;15.40;70.00;;;;;;5094670;28;20028;-46
2022/05/07 02:03:02;;;;;;;9.70;7.95;;;15.30;70.10;;;;;;5094846;28;20039;-45
2022/05/07 02:05:29;;;;;;;9.65;8.63;;;15.30;70.10;;;;;;5094859;28;20378;-45
2022/05/07 02:07:56;;;;;;;10.32;8.55;;;15.30;70.20;;;;;;5093139;28;20034;-45
2022/05/07 02:10:22;;;;;;;11.55;9.50;;;15.30;70.30;;;;;;5094582;28;20039;-46
2022/05/07 02:12:49;;;;;;;9.75;8.75;;;15.20;70.40;;;;;;5094639;28;20024;-45
2022/05/07 02:15:15;;;;;;;10.07;9.07;;;15.20;70.60;;;;;;5094937;28;20087;-45
2022/05/07 02:17:40;;;;;;;10.57;9.48;;;15.20;70.60;;;;;;5094582;28;20082;-45
2022/05/07 02:20:07;;;;;;;11.75;9.43;;;15.20;70.60;;;;;;5094953;28;20028;-45
2022/05/07 02:22:33;;;;;;;11.25;9.85;;;15.20;70.70;;;;;;5094566;28;20050;-44
2022/05/07 02:24:59;;;;;;;10.88;9.50;;;15.20;70.70;;;;;;5094611;28;20024;-46
2022/05/07 02:27:25;;;;;;;11.35;10.15;;;15.20;70.80;;;;;;5094355;28;20024;-46
2022/05/07 02:29:50;;;;;;;10.57;9.38;;;15.20;70.90;;;;;;5092662;28;20531;-46
2022/05/07 02:32:17;;;;;;;12.20;10.45;;;15.20;70.90;;;;;;5093113;28;20154;-46
2022/05/07 02:34:43;;;;;;;11.23;10.05;;;15.10;70.90;;;;;;5093870;28;20112;-46
2022/05/07 02:37:09;;;;;;;11.85;10.27;;;15.10;71.00;;;;;;5094136;28;20165;-46
2022/05/07 02:39:35;;;;;;;11.50;10.35;;;15.00;71.10;;;;;;5094325;28;20008;-46
2022/05/07 02:44:45;;;;;;;17.00;11.32;;;15.10;71.40;;;;;;5094225;28;20031;-45
2022/05/07 02:47:10;;;;;;;12.50;10.95;;;15.00;71.40;;;;;;5093842;28;20027;-45
2022/05/07 02:49:36;;;;;;;12.57;11.02;;;15.00;71.40;;;;;;5092541;28;20031;-46
2022/05/07 02:52:02;;;;;;;12.88;11.45;;;15.00;71.40;;;;;;5093965;28;20476;-46
2022/05/07 02:54:28;;;;;;;14.02;11.32;;;15.00;71.60;;;;;;5093840;28;20541;-45
2022/05/07 02:56:57;;;;;;;13.55;11.60;;;15.00;71.50;;;;;;5093604;28;20071;-46
2022/05/07 02:59:23;;;;;;;13.40;11.95;;;15.00;71.60;;;;;;5093626;28;20028;-46
2022/05/07 03:01:49;;;;;;;13.43;10.57;;;15.00;71.60;;;;;;5093544;28;20097;-46
2022/05/07 03:04:14;;;;;;;13.63;11.75;;;14.90;71.70;;;;;;5093600;28;20382;-46
2022/05/07 03:06:40;;;;;;;13.27;11.57;;;14.90;71.80;;;;;;5093661;28;20463;-45
2022/05/07 03:09:06;;;;;;;14.27;11.68;;;14.90;71.80;;;;;;5093638;28;20529;-45
2022/05/07 03:11:33;;;;;;;15.68;12.32;;;15.00;71.90;;;;;;5093423;28;20036;-43
2022/05/07 03:14:03;;;;;;;14.05;11.93;;;14.90;72.00;;;;;;5093385;28;20012;-45
2022/05/07 03:16:29;;;;;;;14.32;11.80;;;14.90;72.10;;;;;;5093220;28;20012;-46
2022/05/07 03:18:55;;;;;;;15.88;12.30;;;14.90;72.20;;;;;;5093140;28;20078;-45
2022/05/07 03:21:21;;;;;;;15.18;13.18;;;14.90;72.30;;;;;;5093239;28;20452;-46
2022/05/07 03:23:46;;;;;;;15.75;13.27;;;14.90;72.40;;;;;;5093453;28;20081;-45
2022/05/07 03:26:13;;;;;;;15.13;12.68;;;14.80;72.40;;;;;;5093218;28;20032;-46
2022/05/07 03:28:40;;;;;;;15.82;12.82;;;14.80;72.50;;;;;;5093904;28;20360;-45
2022/05/07 03:31:05;;;;;;;15.15;12.85;;;14.80;72.60;;;;;;5093535;28;20472;-45
2022/05/07 03:33:31;;;;;;;17.38;14.15;;;14.80;72.70;;;;;;5093139;28;20099;-46
2022/05/07 03:35:57;;;;;;;14.38;12.82;;;14.80;72.80;;;;;;5093405;28;20472;-46
2022/05/07 03:38:23;;;;;;;15.65;14.05;;;14.80;72.80;;;;;;5093377;28;20100;-45
2022/05/07 03:40:50;;;;;;;17.08;14.48;;;14.80;72.90;;;;;;5093408;28;20028;-46
2022/05/07 03:43:16;;;;;;;17.52;13.85;;;14.80;72.90;;;;;;5092430;28;20113;-46
2022/05/07 03:45:42;;;;;;;15.65;13.80;;;14.80;73.00;;;;;;5093004;28;20046;-45
2022/05/07 03:48:09;;;;;;;16.35;14.50;;;14.70;73.00;;;;;;5092752;28;20063;-46
2022/05/07 03:50:34;;;;;;;15.50;13.82;;;14.80;73.10;;;;;;5092941;28;20388;-46
2022/05/07 03:55:44;;;;;;;18.95;15.02;;;14.80;73.30;;;;;;5092754;28;20030;-45
2022/05/07 03:58:17;;;;;;;16.63;14.80;;;14.80;73.30;;;;;;5092464;28;20466;-46
2022/05/07 04:00:43;;;;;;;15.23;13.63;;;14.80;73.30;;;;;;5092806;28;20209;-46
2022/05/07 04:03:09;;;;;;;18.00;15.13;;;14.80;73.30;;;;;;5091511;28;20036;-46
2022/05/07 04:05:35;;;;;;;18.42;14.88;;;14.80;73.40;;;;;;5092773;28;20020;-45
2022/05/07 04:08:01;;;;;;;19.48;15.70;;;14.80;73.40;;;;;;5092360;28;20024;-46
2022/05/07 04:10:26;;;;;;;17.88;15.52;;;14.80;73.40;;;;;;5092503;28;20035;-45
2022/05/07 04:12:52;;;;;;;19.90;15.75;;;14.80;73.60;;;;;;5092549;28;20061;-45
2022/05/07 04:15:18;;;;;;;19.35;15.95;;;14.80;73.40;;;;;;5092622;28;20107;-45
2022/05/07 04:17:44;;;;;;;17.88;15.38;;;14.90;73.50;;;;;;5092741;28;20024;-46
2022/05/07 04:20:11;;;;;;;18.48;16.17;;;14.90;73.50;;;;;;5092904;28;20101;-46
2022/05/07 04:22:37;;;;;;;17.92;15.10;;;14.90;73.40;;;;;;5092851;28;20036;-45
2022/05/07 04:25:04;;;;;;;19.35;15.73;;;14.90;73.50;;;;;;5092493;28;20038;-45
2022/05/07 04:27:29;;;;;;;17.90;14.98;;;15.00;73.40;;;;;;5092373;28;20016;-46
2022/05/07 04:29:57;;;;;;;17.67;15.85;;;15.00;73.40;;;;;;5092508;28;20491;-45
2022/05/07 04:32:22;;;;;;;18.52;14.90;;;15.00;73.30;;;;;;5092791;28;20028;-45
2022/05/07 04:34:48;;;;;;;19.05;16.60;;;15.10;73.40;;;;;;5090978;28;20016;-46
2022/05/07 04:37:13;;;;;;;20.40;15.27;;;15.20;73.40;;;;;;5090973;28;20165;-46
2022/05/07 04:39:39;;;;;;;17.98;15.43;;;15.20;73.30;;;;;;5092212;28;20099;-46
2022/05/07 04:42:05;;;;;;;17.50;14.93;;;15.20;73.30;;;;;;5092248;28;20505;-45
2022/05/07 04:44:30;;;;;;;19.70;15.18;;;15.20;73.20;;;;;;5092268;28;20474;-46
2022/05/07 04:46:57;;;;;;;17.73;14.95;;;15.30;73.20;;;;;;5091092;28;20031;-45
2022/05/07 04:49:23;;;;;;;16.60;14.80;;;15.30;73.10;;;;;;5092390;28;20020;-46
2022/05/07 04:51:50;;;;;;;18.67;15.02;;;15.30;73.10;;;;;;5092252;28;20024;-46
2022/05/07 04:54:20;;;;;;;16.92;14.55;;;15.40;73.10;;;;;;5094966;28;20065;-46
2022/05/07 04:56:46;;;;;;;19.73;14.82;;;15.40;73.00;;;;;;5096219;28;20036;-46
2022/05/07 04:59:16;;;;;;;17.13;13.77;;;15.50;73.00;;;;;;5094857;28;20032;-46
2022/05/07 05:01:42;;;;;;;17.58;14.98;;;15.50;72.90;;;;;;5096156;28;20475;-46
2022/05/07 05:04:07;;;;;;;16.63;14.23;;;15.50;72.90;;;;;;5096083;28;20022;-46
2022/05/07 05:06:33;;;;;;;17.83;14.55;;;15.60;72.90;;;;;;5096080;28;20024;-46
2022/05/07 05:08:59;;;;;;;16.17;14.23;;;15.60;72.80;;;;;;5096336;28;20027;-46
2022/05/07 05:11:25;;;;;;;19.08;14.70;;;15.70;72.80;;;;;;5096073;28;20069;-47
2022/05/07 05:13:51;;;;;;;16.55;14.02;;;15.70;72.70;;;;;;5096156;28;20016;-46
2022/05/07 05:16:17;;;;;;;17.42;14.55;;;15.80;72.70;;;;;;5096257;28;20302;-45
2022/05/07 05:18:42;;;;;;;18.13;14.73;;;15.80;73.20;;;;;;5095837;28;20129;-46
2022/05/07 05:21:08;;;;;;;18.38;16.13;;;15.80;72.50;;;;;;5095730;28;20028;-46
2022/05/07 05:23:34;;;;;;;19.27;14.73;;;15.90;72.40;;;;;;5095677;28;20024;-46
2022/05/07 05:25:59;;;;;;;18.90;15.27;;;15.90;72.40;;;;;;5095938;28;20034;-46
2022/05/07 05:28:25;;;;;;;19.25;15.57;;;15.90;72.30;;;;;;5095705;28;20121;-46
2022/05/07 05:30:51;;;;;;;17.90;15.27;;;16.00;72.30;;;;;;5094282;28;20023;-46
2022/05/07 05:33:20;;;;;;;19.33;16.10;;;16.00;72.30;;;;;;5095919;28;20382;-46
2022/05/07 05:35:46;;;;;;;17.95;16.02;;;16.00;72.30;;;;;;5095653;28;20028;-46
2022/05/07 05:38:12;;;;;;;17.67;15.85;;;16.00;72.20;;;;;;5095557;28;20030;-46
2022/05/07 05:40:37;;;;;;;19.13;16.08;;;16.10;72.20;;;;;;5095280;28;20027;-46
2022/05/07 05:43:03;;;;;;;19.73;16.05;;;16.10;72.10;;;;;;5094397;28;20020;-46
2022/05/07 05:45:29;;;;;;;21.67;16.77;;;16.20;72.10;;;;;;5095158;28;20502;-46
2022/05/07 05:47:54;;;;;;;19.92;16.10;;;16.20;72.00;;;;;;5095246;28;20499;-45
2022/05/07 05:50:20;;;;;;;19.73;16.80;;;16.20;72.00;;;;;;5095259;28;20046;-46
2022/05/07 05:52:45;;;;;;;19.42;16.27;;;16.30;71.90;;;;;;5095034;28;20072;-46
2022/05/07 05:55:11;;;;;;;18.83;16.10;;;16.30;71.80;;;;;;5095107;28;20021;-46
2022/05/07 05:57:37;;;;;;;18.10;15.90;;;16.40;71.80;;;;;;5095047;28;20518;-46
2022/05/07 06:00:09;;;;;;;17.13;15.23;;;16.40;71.70;;;;;;5095061;28;20024;-46
2022/05/07 06:02:35;;;;;;;17.85;15.43;;;16.40;71.50;;;;;;5095247;28;20047;-45
2022/05/07 06:05:00;;;;;;;18.20;15.35;;;16.40;71.40;;;;;;5076069;28;20020;-47
2022/05/07 06:07:26;;;;;;;17.67;15.10;;;16.50;71.40;;;;;;5094934;28;20036;-46
2022/05/07 06:09:51;;;;;;;17.13;13.23;;;16.50;71.20;;;;;;5094910;28;20016;-45
2022/05/07 06:12:17;;;;;;;17.77;13.13;;;16.50;71.10;;;;;;5094865;28;20107;-46
2022/05/07 06:14:44;;;;;;;17.25;13.13;;;16.60;71.00;;;;;;5094708;28;20380;-45
2022/05/07 06:17:09;;;;;;;15.60;11.93;;;16.60;70.80;;;;;;5095012;28;20024;-46
2022/05/07 06:19:35;;;;;;;15.38;11.98;;;16.60;70.60;;;;;;5094665;28;20424;-46
2022/05/07 06:22:00;;;;;;;16.73;11.93;;;16.60;70.40;;;;;;5094472;28;20047;-46
2022/05/07 06:27:28;;;;;;;12.32;10.30;;;16.70;70.10;;;;;;5094420;28;20022;-45
2022/05/07 06:29:58;;;;;;;14.88;11.02;;;16.70;69.90;;;;;;5094818;28;20020;-46
2022/05/07 06:32:29;;;;;;;13.25;11.68;;;16.70;69.60;;;;;;5093114;28;20074;-45
2022/05/07 06:34:55;;;;;;;17.23;11.20;;;16.80;69.60;;;;;;5094154;28;20380;-46
2022/05/07 06:37:20;;;;;;;14.73;11.30;;;16.80;69.50;;;;;;5094313;28;20020;-46
2022/05/07 06:39:46;;;;;;;14.73;11.63;;;16.80;69.40;;;;;;5092745;28;20032;-45
2022/05/07 06:42:11;;;;;;;15.85;11.32;;;16.90;69.30;;;;;;5092804;28;20016;-29
2022/05/07 06:44:37;;;;;;;14.30;11.38;;;17.00;69.10;;;;;;5094023;28;20095;-32
2022/05/07 06:47:03;;;;;;;12.75;10.63;;;17.10;68.90;;;;;;5094094;28;20066;-28
2022/05/07 06:49:28;;;;;;;12.63;9.90;;;17.10;68.70;;;;;;5093990;28;20491;-32
2022/05/07 06:51:54;;;;;;;16.08;10.85;;;17.10;68.40;;;;;;5094341;28;20016;-29
2022/05/07 06:54:21;;;;;;;13.10;11.20;;;17.10;68.10;;;;;;5092851;28;20034;-45
2022/05/07 06:56:47;;;;;;;14.35;11.63;;;17.10;67.90;;;;;;5094070;28;20404;-46
2022/05/07 06:59:12;;;;;;;13.82;10.73;;;17.00;67.90;;;;;;5093983;28;20391;-47
2022/05/07 07:01:38;;;;;;;14.60;11.52;;;17.10;67.90;;;;;;5093973;28;20024;-45
2022/05/07 07:04:04;;;;;;;14.65;10.68;;;17.10;67.90;;;;;;5093911;28;20031;-46
2022/05/07 07:06:30;;;;;;;16.92;11.73;;;17.10;67.90;;;;;;5093815;28;20361;-44
2022/05/07 07:08:56;;;;;;;15.55;11.40;;;17.20;67.90;;;;;;5093495;28;20039;-46
2022/05/07 07:11:23;;;;;;;13.90;10.63;;;17.10;67.80;;;;;;5093669;28;20027;-46
2022/05/07 07:13:49;;;;;;;13.88;10.20;;;17.20;67.90;;;;;;5093747;28;20471;-46
2022/05/07 07:16:15;;;;;;;15.23;10.75;;;17.30;67.80;;;;;;5093198;28;20053;-46
2022/05/07 07:18:41;;;;;;;15.25;12.10;;;17.30;67.60;;;;;;5093116;28;20392;-47
2022/05/07 07:21:07;;;;;;;17.35;11.50;;;17.20;67.60;;;;;;5093582;28;20036;-46
2022/05/07 07:23:32;;;;;;;16.23;11.82;;;17.30;67.70;;;;;;5093410;28;20390;-43
2022/05/07 07:25:58;;;;;;;14.75;10.82;;;17.30;67.70;;;;;;5093447;28;20556;-46
2022/05/07 07:28:24;;;;;;;17.40;10.98;;;17.40;67.70;;;;;;5092014;28;20075;-45
2022/05/07 07:30:50;;;;;;;13.82;10.50;;;17.50;67.60;;;;;;5093780;28;20024;-46
2022/05/07 07:33:15;;;;;;;11.80;10.00;;;17.50;67.50;;;;;;5092021;28;20437;-46
2022/05/07 07:35:43;;;;;;;15.30;10.20;;;17.60;67.50;;;;;;5093262;28;20021;-45
2022/05/07 07:38:09;;;;;;;13.70;9.73;;;17.70;67.40;;;;;;5093153;28;20081;-46
2022/05/07 07:40:35;;;;;;;15.63;10.10;;;17.70;67.30;;;;;;5093327;28;20032;-46
2022/05/07 07:43:01;;;;;;;15.75;10.27;;;17.70;67.20;;;;;;5093430;28;20520;-47
2022/05/07 07:48:10;;;;;;;13.45;9.77;;;17.80;67.20;;;;;;5093173;28;20031;-47
2022/05/07 07:50:38;;;;;;;14.48;9.68;;;17.70;67.10;;;;;;5092825;28;20028;-45
2022/05/07 07:53:09;;;;;;;14.02;10.60;;;17.80;67.20;;;;;;5092933;28;20020;-47
2022/05/07 07:55:36;;;;;;;13.23;8.70;;;17.80;67.10;;;;;;5092457;28;20027;-46
2022/05/07 07:58:07;;;;;;;11.05;8.93;;;17.90;67.30;;;;;;5092464;28;20043;-46
2022/05/07 08:00:35;;;;;;;14.35;8.75;;;17.90;67.00;;;;;;5092667;28;20452;-44
2022/05/07 08:03:03;;;;;;;15.07;8.32;;;17.90;66.80;;;;;;5092448;28;20476;-45
2022/05/07 08:05:33;;;;;;;11.82;8.55;;;18.00;66.80;;;;;;5092281;28;20032;-45
2022/05/07 08:13:36;;;;;;;11.90;8.25;;;18.10;66.30;;;;;;5092470;28;20394;-45
2022/05/07 08:16:03;;;;;;;11.15;7.75;;;18.20;66.00;;;;;;5092865;28;20020;-46
2022/05/07 08:18:29;;;;;;;10.80;6.68;;;18.20;65.70;;;;;;5092205;28;20231;-46
2022/05/07 08:20:56;;;;;;;11.98;7.63;;;18.40;65.40;;;;;;5092214;28;20107;-46
2022/05/07 08:23:22;;;;;;;10.50;7.20;;;18.40;64.90;;;;;;5092309;28;20154;-45
2022/05/07 08:25:48;;;;;;;12.50;7.22;;;18.50;64.60;;;;;;5092325;28;20032;-45
2022/05/07 08:28:15;;;;;;;10.43;6.60;;;18.60;64.20;;;;;;5093272;28;20034;-46
2022/05/07 08:30:41;;;;;;;9.38;6.80;;;18.60;63.50;;;;;;5096958;28;20031;-46
2022/05/07 08:33:06;;;;;;;11.52;6.18;;;18.70;63.20;;;;;;5096869;28;20036;-45
2022/05/07 08:35:32;;;;;;;11.88;7.03;;;18.70;62.70;;;;;;5096613;28;20055;-46
2022/05/07 08:37:58;;;;;;;11.82;6.93;;;18.80;62.50;;;;;;5096328;28;20028;-46
2022/05/07 08:40:25;;;;;;;9.20;6.78;;;18.90;62.30;;;;;;5096573;28;20069;-46
2022/05/07 08:42:50;;;;;;;11.93;7.45;;;19.00;62.30;;;;;;5096426;28;20046;-46
2022/05/07 08:45:16;;;;;;;10.95;7.35;;;18.90;62.10;;;;;;5096217;28;20028;-47
2022/05/07 08:47:42;;;;;;;8.02;6.32;;;19.10;62.10;;;;;;5096530;28;20024;-47
2022/05/07 08:50:10;;;;;;;10.98;6.43;;;19.10;62.00;;;;;;5096480;28;20027;-47
2022/05/07 08:52:43;;;;;;;11.18;6.53;;;19.20;61.90;;;;;;5096147;28;20056;-46
2022/05/07 08:55:19;;;;;;;10.23;6.90;;;19.20;61.80;;;;;;5096148;28;20052;-46
2022/05/07 08:57:47;;;;;;;11.90;7.32;;;19.30;61.70;;;;;;5095894;28;20050;-45
2022/05/07 09:00:13;;;;;;;9.90;7.20;;;19.40;61.70;;;;;;5096048;28;20020;-46
2022/05/07 09:02:41;;;;;;;8.98;6.35;;;19.40;61.60;;;;;;5096108;28;20532;-46
2022/05/07 09:05:11;;;;;;;10.95;7.00;;;19.50;61.60;;;;;;5096403;28;20085;-46
2022/05/07 09:07:39;;;;;;;9.25;6.03;;;19.50;61.50;;;;;;5094827;28;20058;-46
2022/05/07 09:10:11;;;;;;;10.20;6.07;;;19.70;61.30;;;;;;5096226;28;20019;-46
2022/05/07 09:12:37;;;;;;;10.00;6.28;;;19.70;61.10;;;;;;5096241;28;20028;-46
2022/05/07 09:15:04;;;;;;;12.73;6.60;;;19.70;60.90;;;;;;5095972;28;20485;-46
2022/05/07 09:17:30;;;;;;;10.75;5.72;;;19.80;60.80;;;;;;5095974;28;20069;-46
2022/05/07 09:19:56;;;;;;;10.70;6.10;;;19.90;60.70;;;;;;5095955;28;20535;-46
2022/05/07 09:22:21;;;;;;;9.13;5.60;;;20.00;60.70;;;;;;5095687;28;20114;-46
2022/05/07 09:24:55;;;;;;;11.70;6.68;;;20.10;60.60;;;;;;5096080;28;20016;-46
2022/05/07 09:27:21;;;;;;;10.65;5.68;;;20.10;60.40;;;;;;5095932;28;20031;-46
2022/05/07 09:29:58;;;;;;;8.73;6.07;;;20.20;60.30;;;;;;5095725;28;20074;-46
2022/05/07 09:32:35;;;;;;;9.55;5.90;;;20.20;60.10;;;;;;5095438;28;20081;-50
2022/05/07 09:37:44;;;;;;;7.10;5.00;;;20.30;59.70;;;;;;5095459;28;20039;-47
2022/05/07 09:40:11;;;;;;;8.10;4.93;;;20.40;59.20;;;;;;5094053;28;20039;-48
2022/05/07 09:42:38;;;;;;;7.35;5.65;;;20.40;59.00;;;;;;5095339;28;20038;-48
2022/05/07 09:45:06;;;;;;;8.52;5.30;;;20.40;58.80;;;;;;5095061;28;20081;-47
2022/05/07 09:47:32;;;;;;;9.10;5.53;;;20.50;58.60;;;;;;5095116;28;20122;-47
2022/05/07 09:58:18;;;;;;;9.18;5.88;;;20.70;57.90;;;;;;5073223;28;20052;-47
2022/05/07 10:01:10;;;;;;;7.20;5.20;;;20.80;57.80;;;;;;5094709;28;20059;-47
2022/05/07 10:03:47;;;;;;;13.90;7.22;;;20.80;57.60;;;;;;5094509;28;20111;-47
2022/05/07 10:06:34;;;;;;;8.80;6.28;;;20.90;57.20;;;;;;5094864;28;20356;-46
2022/05/07 10:09:08;;;;;;;10.15;6.95;;;21.00;57.20;;;;;;5094464;28;20032;-45
2022/05/07 10:11:34;;;;;;;8.68;6.13;;;21.10;56.90;;;;;;5094490;28;20376;-45
2022/05/07 10:14:00;;;;;;;12.65;6.43;;;21.00;56.80;;;;;;5094421;28;20031;-45
2022/05/07 10:16:30;;;;;;;8.30;6.10;;;21.00;57.00;;;;;;5094731;28;20020;-46
2022/05/07 10:18:56;;;;;;;11.77;5.95;;;21.10;56.90;;;;;;5094698;28;20043;-46
2022/05/07 10:21:21;;;;;;;11.23;6.70;;;21.20;56.80;;;;;;5094480;28;20078;-46
2022/05/07 10:23:55;;;;;;;11.88;6.70;;;21.30;56.70;;;;;;5094476;28;20099;-46
2022/05/07 10:26:43;;;;;;;10.30;6.45;;;21.30;56.40;;;;;;5094255;28;20027;-46
2022/05/07 10:29:26;;;;;;;13.52;6.80;;;21.50;56.20;;;;;;5094489;28;20383;-46
2022/05/07 10:32:02;;;;;;;13.80;6.50;;;21.50;56.20;;;;;;5094113;28;20040;-46
2022/05/07 10:34:28;;;;;;;9.50;5.85;;;21.50;56.00;;;;;;5093033;28;20027;-46
2022/05/07 10:37:04;;;;;;;9.27;5.70;;;21.60;56.00;;;;;;5094179;28;20340;-29
2022/05/07 10:39:31;;;;;;;13.32;6.55;;;21.70;55.90;;;;;;5094249;28;20102;-31
2022/05/07 10:41:57;;;;;;;10.95;6.75;;;21.90;55.60;;;;;;5094145;28;20498;-29
2022/05/07 10:44:31;;;;;;;10.93;6.53;;;22.00;55.10;;;;;;5094146;28;20020;-30
2022/05/07 10:47:11;;;;;;;8.77;6.20;;;22.20;54.90;;;;;;5093967;28;20024;-31
2022/05/07 10:49:56;;;;;;;12.65;6.28;;;22.30;54.80;;;;;;5094256;28;20032;-30
2022/05/07 10:52:33;;;;;;;10.68;7.15;;;22.40;53.80;;;;;;5094116;28;20024;-30
2022/05/07 10:55:17;;;;;;;7.72;6.40;;;22.40;54.20;;;;;;5094132;28;20028;-35
2022/05/07 10:57:48;;;;;;;11.48;6.55;;;22.40;54.20;;;;;;5094037;28;20044;-38
2022/05/07 11:00:16;;;;;;;11.60;6.82;;;22.30;53.90;;;;;;5094118;28;20047;-32
2022/05/07 11:02:43;;;;;;;11.40;5.82;;;22.30;53.90;;;;;;5094009;28;20043;-29
2022/05/07 11:05:09;;;;;;;9.52;5.80;;;22.40;54.20;;;;;;5094100;28;20054;-30
2022/05/07 11:07:35;;;;;;;9.15;6.22;;;22.50;53.90;;;;;;5093692;28;20394;-30
2022/05/07 11:10:03;;;;;;;10.73;6.22;;;22.60;53.80;;;;;;5094125;28;20016;-31
2022/05/07 11:12:28;;;;;;;7.90;5.78;;;22.60;53.50;;;;;;5093902;28;20023;-30
2022/05/07 11:14:54;;;;;;;7.50;5.15;;;22.50;53.60;;;;;;5093645;28;20023;-31
2022/05/07 11:17:36;;;;;;;10.32;6.20;;;22.50;53.50;;;;;;5093982;28;20020;-33
2022/05/07 11:20:05;;;;;;;6.45;5.15;;;22.50;53.10;;;;;;5093722;28;20027;-29
2022/05/07 11:22:31;;;;;;;9.40;5.25;;;22.50;53.50;;;;;;5093331;28;20073;-30
2022/05/07 11:25:00;;;;;;;9.43;5.60;;;22.50;53.70;;;;;;5093711;28;20020;-33
2022/05/07 11:27:32;;;;;;;8.05;6.13;;;22.60;53.70;;;;;;5093098;28;20016;-31
2022/05/07 11:30:02;;;;;;;10.48;6.13;;;22.50;53.40;;;;;;5093826;28;20031;-31
2022/05/07 11:32:42;;;;;;;14.23;6.20;;;22.50;53.30;;;;;;5093327;28;20022;-29
2022/05/07 11:35:09;;;;;;;10.45;6.72;;;22.50;53.50;;;;;;5093252;28;20024;-30
2022/05/07 11:37:42;;;;;;;10.93;6.32;;;22.40;53.40;;;;;;5093217;28;20509;-30
2022/05/07 11:40:10;;;;;;;8.15;5.10;;;22.40;53.70;;;;;;5093327;28;20031;-32
2022/05/07 11:42:46;;;;;;;9.32;6.60;;;22.40;53.90;;;;;;5093099;28;20016;-30
2022/05/07 11:45:26;;;;;;;7.65;5.88;;;22.40;53.90;;;;;;5093111;28;20032;-31
2022/05/07 11:47:53;;;;;;;9.48;6.13;;;22.30;53.90;;;;;;5092951;28;20032;-33
2022/05/07 11:50:24;;;;;;;8.95;5.80;;;22.30;54.00;;;;;;5091860;28;20369;-31
2022/05/07 11:52:51;;;;;;;7.10;5.10;;;22.20;53.90;;;;;;5092775;28;20016;-29
2022/05/07 11:55:19;;;;;;;7.68;5.13;;;22.10;54.20;;;;;;5091488;28;20479;-31
2022/05/07 11:57:46;;;;;;;11.18;5.65;;;22.00;54.50;;;;;;5092567;28;20090;-30
2022/05/07 12:00:25;;;;;;;7.60;4.90;;;21.80;54.60;;;;;;5091542;28;20024;-34
2022/05/07 12:03:03;;;;;;;11.63;5.15;;;21.70;55.20;;;;;;5090792;28;20111;-29
2022/05/07 12:05:43;;;;;;;12.95;5.50;;;21.40;57.30;;;;;;5092615;28;20077;-30
2022/05/07 12:08:34;;;;;;;9.07;4.90;;;21.00;61.00;;;;;;5092937;28;20088;-38
2022/05/07 12:11:00;;;;;;;11.18;4.88;;;20.20;63.90;;;;;;5082912;28;20445;-31
2022/05/07 12:13:27;;;;;;;5.68;4.45;;;19.60;65.20;;;;;;5091168;28;20021;-30
2022/05/07 12:18:41;;;;;;;7.00;4.50;;;18.90;68.60;;;;;;5092781;28;20096;-30
2022/05/07 12:21:07;;;;;;;9.25;4.82;;;18.60;69.20;;;;;;5092380;28;20028;-29
2022/05/07 12:31:49;;;;;;;5.75;4.35;;;18.00;71.90;;;;;;5092619;28;20035;-29
2022/05/07 12:34:14;;;;;;;6.95;4.15;;;17.90;72.20;;;;;;5092621;28;20020;-29
2022/05/07 12:36:40;;;;;;;8.77;4.88;;;17.80;72.60;;;;;;5092382;28;20069;-29
2022/05/07 12:39:06;;;;;;;6.03;4.53;;;17.80;73.00;;;;;;5092464;28;20406;-32
2022/05/07 12:41:32;;;;;;;8.25;5.38;;;17.80;73.70;;;;;;5092576;28;20027;-27
2022/05/07 12:43:59;;;;;;;7.40;5.20;;;17.90;74.00;;;;;;5092070;28;20341;-30
2022/05/07 12:46:24;;;;;;;7.32;5.60;;;17.90;74.20;;;;;;5092160;28;20020;-29
2022/05/07 12:48:50;;;;;;;9.80;5.85;;;18.00;74.40;;;;;;5092127;28;20089;-28
2022/05/07 12:51:16;;;;;;;8.20;5.90;;;18.10;74.50;;;;;;5092106;28;20031;-28
2022/05/07 12:53:42;;;;;;;12.00;6.80;;;18.30;74.80;;;;;;5091991;28;20024;-28
2022/05/07 12:56:07;;;;;;;10.23;7.00;;;18.60;74.90;;;;;;5092054;28;20081;-29
2022/05/07 12:58:34;;;;;;;9.38;7.13;;;18.80;74.90;;;;;;5091929;28;20082;-29
2022/05/07 13:01:00;;;;;;;9.20;6.35;;;19.10;75.20;;;;;;5092002;28;20036;-30
2022/05/07 13:03:26;;;;;;;8.45;5.90;;;19.30;74.50;;;;;;5092527;28;20040;-30
2022/05/07 13:05:52;;;;;;;8.45;6.10;;;19.60;73.50;;;;;;5092178;28;20031;-30
2022/05/07 13:08:18;;;;;;;8.48;5.90;;;19.70;72.60;;;;;;5091988;28;20024;-31
2022/05/07 13:10:44;;;;;;;8.57;5.72;;;19.80;71.80;;;;;;5091966;28;20490;-28
2022/05/07 13:13:09;;;;;;;8.35;5.43;;;19.80;71.10;;;;;;5090577;28;20016;-29
2022/05/07 13:15:35;;;;;;;7.60;5.93;;;19.90;71.00;;;;;;5094942;28;20040;-27
2022/05/07 13:18:01;;;;;;;9.77;6.03;;;20.10;71.20;;;;;;5095759;28;20027;-30